Time;durP1;ratioP1;P1;durP2;ratioP2;P2;SDS_P1;SDS_P2;PMS_P1;PMS_P2;Temp;Humidity;BMP_temperature;BMP_pressure;BME280_temperature;BME280_humidity;BME280_pressure;Samples;Min_cycle;Max_cycle;Signal;HPM_P1;HPM_P2
2022/01/20 00:03:19;;;;;;;9.63;5.93;;;11.70;84.60;;;;;;4976623;28;20039;-66
2022/01/20 00:08:31;;;;;;;12.00;6.50;;;11.70;84.90;;;;;;4976394;28;20114;-67
2022/01/20 00:27:26;;;;;;;10.00;5.35;;;11.70;84.60;;;;;;4976434;28;20045;-67
2022/01/20 00:32:34;;;;;;;13.77;5.93;;;11.70;85.00;;;;;;4976017;28;20038;-68
2022/01/20 00:37:31;;;;;;;10.07;5.25;;;11.70;85.80;;;;;;4976043;28;20031;-70
2022/01/20 00:39:58;;;;;;;9.05;5.10;;;11.70;85.80;;;;;;4975923;28;20022;-68
2022/01/20 00:42:24;;;;;;;9.73;5.55;;;11.60;85.90;;;;;;4976194;28;20042;-67
2022/01/20 00:44:51;;;;;;;9.77;6.03;;;11.60;85.90;;;;;;4975789;28;20094;-69
2022/01/20 00:47:17;;;;;;;10.02;5.85;;;11.60;86.30;;;;;;4975772;28;20502;-67
2022/01/20 00:49:44;;;;;;;10.23;5.82;;;11.50;86.70;;;;;;4975573;28;20050;-68
2022/01/20 00:52:10;;;;;;;8.98;5.60;;;11.40;86.80;;;;;;4975659;28;20018;-67
2022/01/20 00:54:36;;;;;;;13.32;6.10;;;11.40;86.90;;;;;;4975596;28;20389;-66
2022/01/20 00:57:03;;;;;;;13.35;6.32;;;11.30;87.20;;;;;;4975561;28;20038;-67
2022/01/20 00:59:29;;;;;;;11.63;6.05;;;11.30;87.50;;;;;;4975355;28;20030;-68
2022/01/20 01:01:59;;;;;;;12.65;5.78;;;11.30;87.70;;;;;;4975550;28;20031;-67
2022/01/20 01:04:27;;;;;;;8.82;5.30;;;11.20;87.60;;;;;;4975611;28;20337;-67
2022/01/20 01:07:13;;;;;;;9.40;5.22;;;11.20;88.20;;;;;;4975427;28;20086;-67
2022/01/20 01:09:40;;;;;;;9.05;5.22;;;11.20;88.40;;;;;;4975456;28;20023;-65
2022/01/20 01:12:10;;;;;;;10.25;5.38;;;11.20;88.40;;;;;;4975296;28;20370;-67
2022/01/20 01:14:36;;;;;;;11.18;5.32;;;11.20;88.40;;;;;;4975353;28;20057;-67
2022/01/20 01:24:45;;;;;;;11.93;6.43;;;11.20;89.00;;;;;;4975005;28;20403;-66
2022/01/20 01:27:12;;;;;;;11.80;6.43;;;11.20;89.30;;;;;;4974304;28;20026;-66
2022/01/20 01:35:07;;;;;;;11.95;6.28;;;11.20;89.30;;;;;;4974831;28;20043;-67
2022/01/20 01:40:00;;;;;;;9.77;5.38;;;11.20;89.60;;;;;;4974816;28;20126;-66
2022/01/20 01:42:33;;;;;;;10.05;6.10;;;11.20;89.70;;;;;;4974857;28;20030;-67
2022/01/20 01:45:10;;;;;;;10.43;5.65;;;11.20;89.80;;;;;;4974642;28;20035;-68
2022/01/20 01:47:36;;;;;;;11.13;5.82;;;11.20;89.70;;;;;;4974535;28;20105;-67
2022/01/20 01:50:03;;;;;;;8.35;5.65;;;11.20;89.70;;;;;;4974302;28;20134;-66
2022/01/20 01:52:29;;;;;;;10.82;5.70;;;11.20;89.90;;;;;;4974438;28;20018;-67
2022/01/20 01:54:55;;;;;;;10.93;5.47;;;11.20;90.00;;;;;;4974625;28;20476;-66
2022/01/20 01:57:24;;;;;;;10.23;5.25;;;11.10;90.10;;;;;;4973215;28;20027;-66
2022/01/20 01:59:50;;;;;;;9.40;5.30;;;11.10;90.20;;;;;;4974274;28;20030;-67
2022/01/20 02:02:15;;;;;;;12.25;5.65;;;11.10;90.20;;;;;;4974272;28;20031;-67
2022/01/20 02:04:41;;;;;;;10.35;5.18;;;11.00;90.10;;;;;;4989463;28;20537;-67
2022/01/20 02:17:51;;;;;;;8.82;5.40;;;11.00;90.20;;;;;;4974390;28;20476;-67
2022/01/20 02:20:45;;;;;;;9.60;5.35;;;10.80;90.60;;;;;;4974017;28;20093;-66
2022/01/20 02:23:11;;;;;;;11.90;5.25;;;10.80;90.70;;;;;;4974125;28;20448;-67
2022/01/20 02:25:37;;;;;;;9.05;5.47;;;10.80;90.70;;;;;;4974132;28;20031;-67
2022/01/20 02:28:09;;;;;;;10.68;4.90;;;10.70;90.70;;;;;;4973920;28;20460;-67
2022/01/20 02:30:36;;;;;;;11.07;5.35;;;10.80;90.90;;;;;;4973833;28;20031;-67
2022/01/20 02:33:04;;;;;;;12.18;5.32;;;10.80;90.80;;;;;;4974160;28;20381;-67
2022/01/20 02:35:36;;;;;;;8.80;5.40;;;10.80;90.90;;;;;;4973813;28;20027;-66
2022/01/20 02:38:14;;;;;;;9.52;5.20;;;10.80;90.90;;;;;;4973804;28;20042;-68
2022/01/20 02:46:03;;;;;;;11.68;4.85;;;10.90;90.90;;;;;;4973969;28;20058;-66
2022/01/20 02:48:28;;;;;;;8.57;4.80;;;10.90;90.80;;;;;;4973594;28;20412;-67
2022/01/20 02:50:54;;;;;;;7.95;4.57;;;10.90;90.80;;;;;;4973716;28;20042;-66
2022/01/20 02:53:19;;;;;;;11.05;5.03;;;11.00;90.80;;;;;;4973732;28;20157;-66
2022/01/20 02:55:45;;;;;;;13.45;5.50;;;11.00;90.80;;;;;;4973544;28;20066;-67
2022/01/20 02:58:12;;;;;;;10.68;6.20;;;11.00;90.80;;;;;;4972310;28;20043;-67
2022/01/20 03:00:38;;;;;;;10.35;5.57;;;11.10;90.80;;;;;;4973689;28;20023;-67
2022/01/20 03:03:04;;;;;;;11.68;6.18;;;11.10;90.80;;;;;;4973742;28;20081;-67
2022/01/20 03:05:33;;;;;;;12.20;6.57;;;11.00;90.80;;;;;;4973614;28;20034;-66
2022/01/20 03:08:00;;;;;;;11.60;6.15;;;11.00;90.80;;;;;;4973408;28;20031;-67
2022/01/20 03:10:27;;;;;;;13.05;7.45;;;10.90;90.90;;;;;;4972165;28;20431;-67
2022/01/20 03:12:53;;;;;;;14.07;7.03;;;10.90;90.80;;;;;;4988419;28;20023;-67
2022/01/20 03:15:18;;;;;;;12.68;7.00;;;10.90;90.80;;;;;;4973500;28;20487;-66
2022/01/20 03:17:44;;;;;;;11.90;7.07;;;11.00;91.00;;;;;;4972132;28;20038;-68
2022/01/20 03:20:10;;;;;;;15.98;8.98;;;10.90;91.10;;;;;;4973434;28;20023;-66
2022/01/20 03:22:36;;;;;;;11.18;7.38;;;10.90;90.90;;;;;;4973460;28;20049;-66
2022/01/20 03:25:02;;;;;;;16.08;8.98;;;10.90;91.10;;;;;;4973436;28;20361;-67
2022/01/20 03:27:28;;;;;;;15.70;9.05;;;10.90;91.00;;;;;;4973405;28;20491;-65
2022/01/20 03:29:54;;;;;;;16.48;9.52;;;10.90;90.90;;;;;;4973285;28;20027;-66
2022/01/20 03:32:19;;;;;;;14.55;10.05;;;10.90;91.10;;;;;;4973533;28;20385;-67
2022/01/20 03:34:45;;;;;;;18.77;11.15;;;10.90;91.00;;;;;;4973302;28;20162;-68
2022/01/20 03:37:11;;;;;;;17.65;11.70;;;10.90;90.90;;;;;;4973466;28;20085;-67
2022/01/20 03:39:36;;;;;;;20.02;13.52;;;10.90;91.10;;;;;;4973312;28;20019;-66
2022/01/20 03:42:02;;;;;;;16.58;12.35;;;10.80;91.10;;;;;;4972302;28;20026;-67
2022/01/20 03:44:28;;;;;;;17.38;13.10;;;10.80;91.10;;;;;;4973359;28;20027;-66
2022/01/20 03:46:54;;;;;;;21.10;13.85;;;10.70;91.20;;;;;;4972101;28;20027;-67
2022/01/20 03:52:02;;;;;;;18.15;13.65;;;10.70;91.10;;;;;;4977155;28;20492;-68
2022/01/20 03:54:28;;;;;;;17.45;14.00;;;10.70;91.30;;;;;;4975460;28;20030;-67
2022/01/20 03:56:54;;;;;;;19.25;14.18;;;10.70;91.20;;;;;;4975072;28;20090;-66
2022/01/20 03:59:20;;;;;;;22.67;15.18;;;10.70;90.90;;;;;;4975187;28;20060;-68
2022/01/20 04:01:46;;;;;;;20.88;14.95;;;10.60;91.20;;;;;;4991526;28;20117;-67
2022/01/20 04:04:11;;;;;;;19.60;15.52;;;10.50;91.20;;;;;;4976427;28;20091;-67
2022/01/20 04:06:37;;;;;;;22.58;16.15;;;10.50;91.30;;;;;;4976384;28;20473;-68
2022/01/20 04:09:03;;;;;;;21.85;15.45;;;10.50;91.20;;;;;;4976274;28;20073;-69
2022/01/20 04:11:29;;;;;;;20.77;15.80;;;10.50;91.30;;;;;;4976431;28;20077;-68
2022/01/20 04:13:56;;;;;;;19.70;15.43;;;10.50;91.40;;;;;;4976497;28;20113;-67
2022/01/20 04:16:39;;;;;;;21.73;16.02;;;10.50;91.30;;;;;;4974887;28;20043;-66
2022/01/20 04:19:10;;;;;;;24.10;16.58;;;10.50;91.30;;;;;;4976022;28;20110;-66
2022/01/20 04:21:38;;;;;;;21.85;16.25;;;10.50;91.50;;;;;;4975908;28;20511;-67
2022/01/20 04:24:05;;;;;;;20.95;15.82;;;10.40;91.70;;;;;;4976134;28;20072;-67
2022/01/20 04:26:35;;;;;;;22.58;16.23;;;10.40;91.80;;;;;;4976017;28;20034;-66
2022/01/20 04:29:01;;;;;;;21.77;15.63;;;10.40;91.80;;;;;;4975950;28;20034;-67
2022/01/20 04:31:30;;;;;;;23.95;17.10;;;10.40;91.90;;;;;;4975997;28;20026;-67
2022/01/20 04:33:57;;;;;;;22.77;16.00;;;10.40;92.20;;;;;;4975910;28;20015;-66
2022/01/20 04:36:28;;;;;;;21.15;16.40;;;10.40;92.30;;;;;;4975673;28;20126;-68
2022/01/20 04:38:54;;;;;;;23.00;16.33;;;10.40;91.60;;;;;;4975736;28;20030;-67
2022/01/20 04:41:21;;;;;;;21.23;16.95;;;10.40;92.40;;;;;;4976012;28;20037;-68
2022/01/20 04:43:47;;;;;;;20.13;16.23;;;10.40;92.30;;;;;;4974791;28;20023;-67
2022/01/20 04:46:23;;;;;;;21.27;16.60;;;10.40;92.50;;;;;;4976086;28;20026;-68
2022/01/20 04:57:20;;;;;;;21.05;16.35;;;10.30;93.00;;;;;;4975315;28;20101;-66
2022/01/20 04:59:46;;;;;;;21.88;16.27;;;10.30;93.00;;;;;;4975491;28;20015;-67
2022/01/20 05:02:13;;;;;;;22.70;17.65;;;10.30;93.30;;;;;;4973110;28;20069;-69
2022/01/20 05:04:41;;;;;;;23.65;16.85;;;10.30;93.20;;;;;;4975440;28;20161;-67
2022/01/20 05:07:09;;;;;;;24.77;17.73;;;10.30;93.60;;;;;;4974045;28;20059;-69
2022/01/20 05:09:35;;;;;;;23.05;17.27;;;10.20;93.30;;;;;;4975123;28;20082;-67
2022/01/20 05:12:08;;;;;;;22.38;17.00;;;10.20;93.50;;;;;;4975240;28;20495;-68
2022/01/20 05:14:34;;;;;;;16.70;13.35;;;10.20;93.10;;;;;;4975379;28;20022;-67
2022/01/20 05:17:00;;;;;;;24.80;17.35;;;10.20;93.60;;;;;;4975143;28;20069;-68
2022/01/20 05:19:28;;;;;;;24.95;17.42;;;10.20;93.70;;;;;;4974996;28;20070;-67
2022/01/20 05:21:54;;;;;;;25.38;18.80;;;10.20;94.00;;;;;;4975120;28;20027;-68
2022/01/20 05:24:23;;;;;;;26.25;18.77;;;10.20;94.00;;;;;;4974884;28;20046;-67
2022/01/20 05:26:54;;;;;;;24.13;17.90;;;10.20;93.40;;;;;;4974810;28;20107;-67
2022/01/20 05:29:21;;;;;;;24.23;19.25;;;10.20;94.20;;;;;;4974805;28;20023;-66
2022/01/20 05:31:48;;;;;;;26.10;19.27;;;10.20;94.20;;;;;;4975040;28;20494;-66
2022/01/20 05:34:15;;;;;;;27.73;19.95;;;10.20;94.20;;;;;;4974766;28;20030;-67
2022/01/20 05:36:42;;;;;;;25.77;19.23;;;10.20;94.30;;;;;;4974650;28;20042;-66
2022/01/20 05:39:09;;;;;;;26.85;19.85;;;10.20;94.40;;;;;;4974966;28;20035;-68
2022/01/20 05:41:35;;;;;;;25.60;19.85;;;10.20;94.20;;;;;;4974849;28;20022;-67
2022/01/20 05:44:01;;;;;;;26.48;18.65;;;10.20;94.40;;;;;;4974901;28;20543;-68
2022/01/20 05:46:35;;;;;;;22.08;16.98;;;10.30;94.50;;;;;;4974617;28;20065;-68
2022/01/20 05:49:08;;;;;;;22.23;17.90;;;10.30;94.60;;;;;;4974537;28;20050;-71
2022/01/20 05:51:39;;;;;;;24.80;18.42;;;10.30;94.70;;;;;;4974756;28;20481;-69
2022/01/20 05:54:06;;;;;;;22.92;18.77;;;10.30;94.20;;;;;;4974723;28;20106;-68
2022/01/20 05:56:32;;;;;;;23.48;18.35;;;10.30;94.90;;;;;;4974601;28;20037;-67
2022/01/20 05:58:59;;;;;;;22.65;17.40;;;10.30;94.80;;;;;;4974364;28;20027;-67
2022/01/20 06:01:27;;;;;;;25.45;18.27;;;10.30;95.00;;;;;;4974318;28;20062;-67
2022/01/20 06:03:53;;;;;;;26.23;18.83;;;10.30;95.10;;;;;;4972938;28;20365;-67
2022/01/20 06:06:19;;;;;;;23.08;16.58;;;10.30;95.10;;;;;;4974282;28;20174;-67
2022/01/20 06:08:45;;;;;;;30.30;18.25;;;10.30;95.30;;;;;;4974245;28;20023;-67
2022/01/20 06:11:11;;;;;;;22.50;16.77;;;10.30;95.50;;;;;;4974070;28;20105;-68
2022/01/20 06:13:37;;;;;;;21.92;16.90;;;10.40;95.60;;;;;;4973907;28;20049;-66
2022/01/20 06:16:03;;;;;;;24.33;17.40;;;10.40;95.80;;;;;;4974069;28;20034;-67
2022/01/20 06:18:29;;;;;;;25.85;18.95;;;10.30;95.70;;;;;;4973959;28;20101;-68
2022/01/20 06:20:56;;;;;;;22.88;17.75;;;10.30;95.90;;;;;;4974139;28;20476;-68
2022/01/20 06:23:22;;;;;;;22.70;17.88;;;10.30;96.00;;;;;;4973963;28;20030;-67
2022/01/20 06:25:48;;;;;;;23.95;18.33;;;10.30;96.20;;;;;;4973754;28;20031;-67
2022/01/20 06:28:15;;;;;;;23.20;18.02;;;10.30;96.40;;;;;;4973741;28;20022;-69
2022/01/20 06:30:41;;;;;;;24.73;19.27;;;10.20;96.30;;;;;;4973753;28;20031;-67
2022/01/20 06:33:07;;;;;;;24.27;19.45;;;10.20;96.40;;;;;;4973870;28;20074;-66
2022/01/20 06:35:33;;;;;;;27.60;20.40;;;10.10;96.60;;;;;;4973700;28;20077;-68
2022/01/20 06:37:59;;;;;;;25.55;19.45;;;10.10;96.80;;;;;;4973676;28;20121;-69
2022/01/20 06:40:25;;;;;;;28.15;19.92;;;10.10;96.80;;;;;;4973785;28;20019;-67
2022/01/20 06:42:51;;;;;;;25.70;20.70;;;10.10;97.00;;;;;;4973832;28;20030;-67
2022/01/20 06:45:19;;;;;;;25.65;20.40;;;10.10;97.10;;;;;;4973996;28;20193;-67
2022/01/20 06:47:45;;;;;;;25.67;21.17;;;10.10;97.10;;;;;;4973885;28;20026;-67
2022/01/20 06:50:12;;;;;;;26.67;20.40;;;10.20;97.20;;;;;;4973980;28;20122;-69
2022/01/20 06:52:39;;;;;;;31.30;22.27;;;10.30;97.10;;;;;;4973604;28;20038;-68
2022/01/20 06:55:08;;;;;;;24.98;21.40;;;10.30;97.10;;;;;;4973745;28;20479;-68
2022/01/20 06:57:34;;;;;;;28.25;22.13;;;10.30;97.00;;;;;;4973817;28;20469;-68
2022/01/20 07:00:01;;;;;;;28.75;22.90;;;10.30;97.00;;;;;;4973562;28;20049;-67
2022/01/20 07:02:27;;;;;;;30.10;22.55;;;10.40;97.10;;;;;;4972210;28;20042;-67
2022/01/20 07:04:53;;;;;;;28.50;21.27;;;10.40;97.00;;;;;;4973623;28;20078;-67
2022/01/20 07:07:19;;;;;;;28.33;21.92;;;10.40;97.10;;;;;;4973960;28;20027;-68
2022/01/20 07:09:45;;;;;;;28.65;21.60;;;10.40;97.20;;;;;;4978500;28;20038;-67
2022/01/20 07:12:12;;;;;;;25.00;21.17;;;10.40;97.20;;;;;;4984708;28;20356;-66
2022/01/20 07:14:39;;;;;;;28.05;21.70;;;10.50;97.10;;;;;;4993354;28;20065;-78
2022/01/20 07:17:06;;;;;;;27.52;20.65;;;10.50;97.20;;;;;;4993017;28;20476;-73
2022/01/20 07:19:33;;;;;;;30.38;22.15;;;10.50;97.10;;;;;;4993055;28;20018;-70
2022/01/20 07:22:00;;;;;;;25.42;19.77;;;10.60;97.30;;;;;;4993466;28;20041;-69
2022/01/20 07:24:27;;;;;;;29.63;21.05;;;10.60;97.20;;;;;;4994267;28;20033;-69
2022/01/20 07:26:53;;;;;;;28.00;20.33;;;10.60;97.20;;;;;;4997131;28;20029;-65
2022/01/20 07:29:20;;;;;;;33.13;20.80;;;10.60;97.00;;;;;;4996775;28;20038;-66
2022/01/20 07:31:46;;;;;;;28.25;20.48;;;10.70;96.90;;;;;;4996884;28;20408;-66
2022/01/20 07:34:12;;;;;;;29.90;21.45;;;10.70;96.90;;;;;;4987907;28;20143;-67
2022/01/20 07:36:37;;;;;;;30.88;21.83;;;10.80;97.00;;;;;;4996770;28;20113;-71
2022/01/20 07:39:04;;;;;;;33.95;21.88;;;10.70;96.70;;;;;;4995236;28;20022;-68
2022/01/20 07:41:31;;;;;;;26.95;20.95;;;10.70;96.90;;;;;;4996868;28;20106;-68
2022/01/20 07:43:57;;;;;;;28.73;22.77;;;10.80;97.20;;;;;;4990790;28;20023;-67
2022/01/20 07:46:23;;;;;;;27.05;22.00;;;10.80;96.90;;;;;;4995327;28;20533;-66
2022/01/20 07:48:49;;;;;;;28.63;21.42;;;10.70;96.90;;;;;;4994863;28;20058;-66
2022/01/20 07:51:16;;;;;;;25.38;21.08;;;10.60;96.90;;;;;;4977619;28;20069;-70
2022/01/20 07:53:42;;;;;;;27.23;21.70;;;10.60;96.90;;;;;;4976742;28;20029;-66
2022/01/20 07:56:08;;;;;;;26.27;21.13;;;10.60;96.90;;;;;;4976496;28;20034;-67
2022/01/20 07:58:35;;;;;;;24.58;19.65;;;10.70;97.00;;;;;;4975643;28;20027;-67
2022/01/20 08:01:01;;;;;;;30.33;21.02;;;10.70;96.90;;;;;;4976723;28;20066;-67
2022/01/20 08:03:27;;;;;;;25.98;20.20;;;10.70;96.80;;;;;;4976556;28;20019;-66
2022/01/20 08:05:52;;;;;;;28.25;18.52;;;10.80;96.90;;;;;;4976640;28;20046;-68
2022/01/20 08:08:18;;;;;;;22.77;19.25;;;10.90;96.80;;;;;;4976693;28;20066;-66
2022/01/20 08:10:44;;;;;;;24.33;18.63;;;11.00;96.70;;;;;;4978879;28;20039;-67
2022/01/20 08:13:10;;;;;;;25.23;17.70;;;11.00;96.60;;;;;;4988979;28;20596;-67
2022/01/20 08:15:36;;;;;;;23.45;17.38;;;11.10;96.50;;;;;;4995951;28;20428;-68
2022/01/20 08:18:02;;;;;;;23.70;17.83;;;11.10;96.40;;;;;;4995950;28;20042;-69
2022/01/20 08:20:28;;;;;;;25.02;19.00;;;11.20;96.50;;;;;;4978691;28;20039;-67
2022/01/20 08:22:54;;;;;;;25.33;17.55;;;11.30;96.20;;;;;;4996329;28;20094;-68
2022/01/20 08:25:20;;;;;;;18.10;13.73;;;11.50;96.20;;;;;;4995319;28;20033;-70
2022/01/20 08:27:48;;;;;;;20.83;13.43;;;11.60;96.10;;;;;;4995704;28;20038;-69
2022/01/20 08:30:16;;;;;;;21.33;13.90;;;11.70;96.00;;;;;;4995900;28;20033;-67
2022/01/20 08:32:43;;;;;;;18.65;12.43;;;11.70;95.90;;;;;;4995871;28;20026;-67
2022/01/20 08:35:11;;;;;;;13.32;9.52;;;11.70;95.90;;;;;;4995091;28;20029;-68
2022/01/20 08:37:40;;;;;;;13.15;8.13;;;11.70;96.10;;;;;;4995250;28;20081;-67
2022/01/20 08:40:16;;;;;;;16.25;8.40;;;11.70;96.10;;;;;;4995413;28;20388;-67
2022/01/20 08:42:44;;;;;;;16.13;8.32;;;11.80;96.20;;;;;;4995541;28;20026;-68
2022/01/20 08:45:14;;;;;;;18.95;8.57;;;11.90;96.20;;;;;;4995688;28;20030;-66
2022/01/20 08:47:42;;;;;;;13.40;6.10;;;12.00;96.20;;;;;;4995104;28;20379;-67
2022/01/20 08:50:10;;;;;;;14.95;7.22;;;12.00;96.30;;;;;;4995147;28;20042;-67
2022/01/20 08:52:36;;;;;;;13.57;5.97;;;12.00;96.30;;;;;;4994904;28;20033;-67
2022/01/20 08:55:03;;;;;;;11.73;4.75;;;12.00;96.40;;;;;;4994936;28;20022;-68
2022/01/20 08:57:29;;;;;;;13.40;4.43;;;12.00;96.60;;;;;;4995448;28;20420;-67
2022/01/20 08:59:56;;;;;;;11.65;5.03;;;12.00;96.70;;;;;;4993555;28;20224;-67
2022/01/20 09:02:22;;;;;;;9.43;5.20;;;12.00;96.70;;;;;;4995053;28;20378;-68
2022/01/20 09:04:49;;;;;;;13.50;4.75;;;12.00;96.80;;;;;;4995139;28;20127;-68
2022/01/20 09:07:15;;;;;;;17.40;4.57;;;12.10;96.70;;;;;;4995053;28;20026;-68
2022/01/20 09:09:45;;;;;;;13.65;4.90;;;12.10;96.60;;;;;;4994666;28;20310;-68
2022/01/20 09:17:28;;;;;;;10.27;3.83;;;12.40;96.10;;;;;;4995043;28;20065;-69
2022/01/20 09:19:55;;;;;;;12.10;4.43;;;12.60;96.00;;;;;;4994586;28;20030;-68
2022/01/20 09:22:22;;;;;;;12.05;4.97;;;12.70;95.80;;;;;;4994602;28;20464;-68
2022/01/20 09:24:47;;;;;;;10.38;5.07;;;12.80;95.50;;;;;;4993153;28;20050;-70
2022/01/20 09:27:14;;;;;;;13.55;4.95;;;12.70;95.40;;;;;;4994618;28;20037;-68
2022/01/20 09:29:41;;;;;;;10.43;5.38;;;12.80;95.50;;;;;;4994061;28;20042;-69
2022/01/20 09:32:08;;;;;;;10.68;4.30;;;12.80;95.40;;;;;;4994387;28;20336;-69
2022/01/20 09:34:34;;;;;;;11.02;4.57;;;12.70;95.50;;;;;;4994630;28;20376;-66
2022/01/20 09:37:00;;;;;;;12.30;4.88;;;12.70;95.50;;;;;;4994220;28;20121;-68
2022/01/20 09:39:25;;;;;;;10.45;4.40;;;12.70;95.60;;;;;;4992931;28;20049;-68
2022/01/20 09:41:51;;;;;;;10.77;4.20;;;12.70;95.60;;;;;;4994198;28;20420;-72
2022/01/20 09:44:19;;;;;;;9.88;4.80;;;12.60;95.60;;;;;;4994287;28;20027;-67
2022/01/20 09:46:46;;;;;;;9.88;5.03;;;12.60;95.40;;;;;;4993735;28;20093;-68
2022/01/20 09:49:13;;;;;;;10.98;4.60;;;12.50;95.70;;;;;;4994265;28;20074;-67
2022/01/20 09:51:40;;;;;;;9.73;4.10;;;12.50;95.70;;;;;;4994767;28;20105;-70
2022/01/20 09:54:06;;;;;;;9.00;4.35;;;12.50;95.70;;;;;;4994325;28;20030;-67
2022/01/20 09:56:33;;;;;;;10.65;4.68;;;12.50;95.70;;;;;;4993968;28;20680;-68
2022/01/20 09:58:59;;;;;;;7.72;4.18;;;12.60;95.80;;;;;;4993967;28;20045;-68
2022/01/20 10:01:56;;;;;;;8.75;4.50;;;12.60;95.70;;;;;;4994087;28;20468;-70
2022/01/20 10:04:27;;;;;;;10.13;4.68;;;12.50;95.80;;;;;;4990335;28;20077;-70
2022/01/20 10:07:03;;;;;;;11.35;4.45;;;12.50;95.70;;;;;;4993926;28;20229;-68
2022/01/20 10:09:35;;;;;;;9.95;4.68;;;12.50;95.70;;;;;;4993699;28;20022;-69
2022/01/20 10:12:01;;;;;;;11.30;5.47;;;12.50;96.00;;;;;;4993805;28;20070;-68
2022/01/20 10:14:41;;;;;;;11.00;5.35;;;12.50;96.50;;;;;;4993851;28;20526;-69
2022/01/20 10:17:29;;;;;;;10.20;5.10;;;12.50;96.10;;;;;;4993812;28;20456;-68
2022/01/20 10:20:05;;;;;;;9.52;5.40;;;12.50;96.20;;;;;;4992271;28;20079;-71
2022/01/20 10:22:35;;;;;;;8.65;5.25;;;12.50;96.30;;;;;;4993791;28;20038;-68
2022/01/20 10:25:20;;;;;;;10.10;5.20;;;12.50;96.20;;;;;;4993636;28;20167;-72
2022/01/20 10:27:52;;;;;;;34.45;7.93;;;12.60;96.30;;;;;;4992071;28;20030;-72
2022/01/20 10:30:19;;;;;;;12.63;6.43;;;12.60;96.20;;;;;;4993876;28;20121;-70
2022/01/20 10:32:57;;;;;;;15.23;6.82;;;12.70;96.20;;;;;;4993514;28;20038;-69
2022/01/20 10:35:34;;;;;;;12.07;6.00;;;12.70;96.30;;;;;;4993323;28;20117;-69
2022/01/20 10:38:12;;;;;;;10.65;5.88;;;12.70;96.40;;;;;;4993164;28;20554;-69
2022/01/20 10:40:56;;;;;;;10.13;5.45;;;12.70;96.30;;;;;;4993327;28;20023;-69
2022/01/20 10:43:34;;;;;;;14.15;5.80;;;12.70;96.30;;;;;;4993749;28;20177;-69
2022/01/20 10:46:12;;;;;;;8.63;4.47;;;12.70;96.20;;;;;;4993524;28;20109;-70
2022/01/20 10:48:40;;;;;;;15.77;5.20;;;12.60;96.40;;;;;;4993118;28;20087;-75
2022/01/20 10:51:22;;;;;;;10.23;5.00;;;12.60;96.30;;;;;;4993453;28;20022;-75
2022/01/20 10:53:59;;;;;;;13.90;5.72;;;12.60;96.50;;;;;;4993985;28;20026;-76
2022/01/20 10:56:27;;;;;;;9.95;5.00;;;12.70;96.40;;;;;;4994488;28;20030;-72
2022/01/20 10:58:54;;;;;;;12.55;6.28;;;12.90;96.20;;;;;;4995080;28;20031;-72
2022/01/20 11:01:20;;;;;;;15.20;6.97;;;13.10;95.90;;;;;;4999403;28;20526;-70
2022/01/20 11:03:47;;;;;;;15.73;6.78;;;13.20;95.80;;;;;;4999251;28;20027;-73
2022/01/20 11:06:15;;;;;;;12.40;6.13;;;13.30;95.60;;;;;;4998097;28;20053;-70
2022/01/20 11:08:43;;;;;;;13.25;6.28;;;13.40;95.50;;;;;;4997549;28;20031;-68
2022/01/20 11:11:13;;;;;;;14.38;5.55;;;13.50;95.50;;;;;;4997100;28;20053;-74
2022/01/20 11:13:39;;;;;;;12.60;5.95;;;13.50;95.30;;;;;;4997673;28;20022;-69
2022/01/20 11:16:06;;;;;;;12.93;6.43;;;13.60;95.30;;;;;;4997149;28;20383;-69
2022/01/20 11:18:32;;;;;;;12.15;5.55;;;13.60;95.30;;;;;;4997042;28;20026;-70
2022/01/20 11:21:02;;;;;;;11.45;6.50;;;13.60;95.30;;;;;;4996571;28;20121;-70
2022/01/20 11:23:42;;;;;;;12.18;6.07;;;13.60;95.40;;;;;;4997449;28;20011;-69
2022/01/20 11:26:10;;;;;;;11.02;5.88;;;13.60;95.50;;;;;;4995704;28;20071;-71
2022/01/20 11:28:36;;;;;;;13.75;6.45;;;13.50;95.60;;;;;;4996747;28;20121;-71
2022/01/20 11:31:08;;;;;;;18.00;7.45;;;13.50;95.80;;;;;;4997884;28;20460;-70
2022/01/20 11:33:42;;;;;;;13.65;6.18;;;13.40;95.90;;;;;;4995658;28;20022;-69
2022/01/20 11:36:25;;;;;;;12.10;6.40;;;13.30;96.10;;;;;;4996823;28;20041;-72
2022/01/20 11:38:58;;;;;;;14.63;8.90;;;13.30;96.20;;;;;;4996922;28;20030;-69
2022/01/20 11:41:40;;;;;;;11.77;6.53;;;13.20;96.50;;;;;;4995397;28;20487;-71
2022/01/20 11:44:19;;;;;;;13.85;5.85;;;13.10;96.60;;;;;;4996741;28;20022;-74
2022/01/20 11:46:49;;;;;;;14.07;4.82;;;13.10;96.80;;;;;;4996784;28;20045;-74
2022/01/20 11:49:18;;;;;;;10.57;5.10;;;13.10;96.90;;;;;;4995453;28;20396;-77
2022/01/20 11:51:45;;;;;;;14.48;4.40;;;13.10;96.90;;;;;;4996693;28;20073;-77
2022/01/20 11:54:12;;;;;;;31.38;7.75;;;13.10;96.90;;;;;;4996797;28;20460;-69
2022/01/20 11:56:43;;;;;;;12.43;5.15;;;13.10;96.70;;;;;;4996308;28;20026;-70
2022/01/20 11:59:11;;;;;;;13.30;4.93;;;13.20;96.60;;;;;;4995246;28;20041;-70
2022/01/20 12:01:48;;;;;;;14.85;5.05;;;13.30;96.40;;;;;;4996413;28;20026;-72
2022/01/20 12:04:15;;;;;;;18.42;5.45;;;13.50;96.10;;;;;;4996491;28;20495;-71
2022/01/20 12:06:44;;;;;;;15.05;5.97;;;13.60;95.70;;;;;;4995057;28;20376;-71
2022/01/20 12:09:10;;;;;;;11.77;4.32;;;13.60;95.50;;;;;;4994895;28;20475;-71
2022/01/20 12:11:42;;;;;;;18.02;4.28;;;13.60;95.40;;;;;;4994442;28;20073;-70
2022/01/20 12:14:09;;;;;;;11.80;4.40;;;13.60;95.30;;;;;;4996211;28;20507;-70
2022/01/20 12:16:36;;;;;;;17.33;5.40;;;13.60;95.30;;;;;;4996189;28;20035;-69
2022/01/20 12:19:04;;;;;;;28.35;6.72;;;13.60;95.40;;;;;;4995851;28;20106;-77
2022/01/20 12:21:31;;;;;;;21.05;7.15;;;13.40;95.70;;;;;;4996013;28;20037;-70
2022/01/20 12:23:58;;;;;;;13.73;4.30;;;13.40;95.80;;;;;;4996055;28;20022;-79
2022/01/20 12:26:24;;;;;;;14.10;3.97;;;13.30;95.70;;;;;;4996606;28;20440;-72
2022/01/20 12:29:21;;;;;;;11.57;4.40;;;13.20;95.70;;;;;;4996150;28;20097;-80
2022/01/20 12:31:49;;;;;;;21.65;10.45;;;13.20;95.70;;;;;;4991398;28;20038;-72
2022/01/20 12:34:16;;;;;;;12.52;4.50;;;13.20;95.80;;;;;;4996198;28;20034;-78
2022/01/20 12:36:53;;;;;;;12.52;4.55;;;13.20;95.60;;;;;;4995883;28;20038;-68
2022/01/20 12:39:34;;;;;;;12.18;4.32;;;13.10;95.40;;;;;;4995711;28;20101;-70
2022/01/20 12:42:07;;;;;;;12.95;4.63;;;13.20;95.70;;;;;;4995806;28;20045;-70
2022/01/20 12:44:47;;;;;;;11.55;4.55;;;13.20;95.30;;;;;;4997905;28;20034;-70
2022/01/20 12:47:14;;;;;;;14.50;4.72;;;13.10;95.40;;;;;;4996317;28;20025;-65
2022/01/20 12:49:41;;;;;;;10.18;4.10;;;13.20;95.20;;;;;;4996419;28;20054;-65
2022/01/20 12:52:09;;;;;;;14.30;5.03;;;13.20;95.30;;;;;;4997106;28;20104;-65
2022/01/20 12:54:35;;;;;;;10.35;3.70;;;13.10;95.30;;;;;;4997611;28;20151;-70
2022/01/20 12:57:07;;;;;;;14.25;4.47;;;13.10;94.80;;;;;;4998761;28;20487;-65
2022/01/20 12:59:38;;;;;;;12.07;4.70;;;13.10;95.40;;;;;;4998667;28;20033;-74
2022/01/20 13:02:08;;;;;;;11.82;4.70;;;13.10;95.30;;;;;;4998713;28;20023;-65
2022/01/20 13:04:37;;;;;;;16.92;5.30;;;13.10;95.30;;;;;;5000879;28;20105;-65
2022/01/20 13:07:05;;;;;;;13.48;4.53;;;13.10;95.30;;;;;;4999240;28;20030;-71
2022/01/20 13:09:52;;;;;;;12.07;4.80;;;13.20;95.50;;;;;;4997563;28;20105;-73
2022/01/20 13:12:32;;;;;;;15.20;6.13;;;13.20;95.30;;;;;;5000485;28;20058;-65
2022/01/20 13:14:58;;;;;;;20.60;5.15;;;13.20;95.40;;;;;;4998137;28;20026;-66
2022/01/20 13:17:30;;;;;;;13.57;4.15;;;13.20;95.30;;;;;;4996387;28;20116;-70
2022/01/20 13:19:58;;;;;;;11.60;4.03;;;13.20;95.40;;;;;;4995154;28;20484;-73
2022/01/20 13:22:42;;;;;;;15.98;5.20;;;13.20;95.40;;;;;;4992828;28;20030;-69
2022/01/20 13:25:12;;;;;;;17.33;5.90;;;13.20;95.50;;;;;;4994070;28;20030;-71
2022/01/20 13:27:49;;;;;;;17.48;4.30;;;13.30;95.40;;;;;;4995061;28;20080;-69
2022/01/20 13:30:47;;;;;;;14.25;4.82;;;13.20;95.30;;;;;;4995220;28;20025;-76
2022/01/20 13:33:14;;;;;;;16.20;4.13;;;13.30;95.20;;;;;;4995519;28;20030;-71
2022/01/20 13:35:42;;;;;;;16.00;4.25;;;13.30;95.50;;;;;;4999134;28;20046;-69
2022/01/20 13:38:10;;;;;;;16.20;4.95;;;13.30;95.50;;;;;;4997147;28;20072;-70
2022/01/20 13:40:39;;;;;;;12.05;4.45;;;13.30;95.20;;;;;;4995406;28;20022;-70
2022/01/20 13:46:00;;;;;;;12.60;3.65;;;13.40;95.20;;;;;;4993931;28;20034;-68
2022/01/20 13:48:32;;;;;;;13.77;3.92;;;13.60;95.40;;;;;;4994318;28;20038;-74
2022/01/20 13:51:01;;;;;;;13.45;3.85;;;13.70;95.10;;;;;;4993388;28;20112;-74
2022/01/20 13:53:28;;;;;;;15.20;4.05;;;13.60;94.90;;;;;;4995056;28;20036;-70
2022/01/20 13:56:01;;;;;;;13.98;4.50;;;13.50;95.00;;;;;;4994735;28;20034;-70
2022/01/20 13:58:31;;;;;;;10.38;3.17;;;13.40;95.20;;;;;;4993686;28;20026;-72